MST,Max TemperatureF,Mean TemperatureF,Min TemperatureF,Max Dew PointF,MeanDew PointF,Min DewpointF,Max Humidity, Mean Humidity, Min Humidity, Max Sea Level PressureIn, Mean Sea Level PressureIn, Min Sea Level PressureIn, Max VisibilityMiles, Mean VisibilityMiles, Min VisibilityMiles, Max Wind SpeedMPH, Mean Wind SpeedMPH, Max Gust SpeedMPH,PrecipitationIn, CloudCover, Events, WindDirDegrees
2013-9-1,84,73,61,64,61,59,93,79,47,30.18,29.99,29.87,10,8,0,32,4,38,0.11,3,Fog-Rain-Thunderstorm,205
2013-9-2,86,73,59,63,59,54,93,66,34,30.11,29.93,29.86,10,10,10,14,3,16,0.01,2,Thunderstorm,208
2013-9-3,88,75,62,60,55,47,84,55,31,30.14,29.95,29.88,10,10,10,24,5,31,T,2,Rain-Thunderstorm,241
2013-9-4,90,77,63,58,55,49,84,55,24,30.01,29.95,29.88,10,10,10,21,6,24,0.00,1,,250
2013-9-5,90,75,59,59,50,41,78,47,20,30.02,29.95,29.90,10,10,10,17,5,21,0.00,2,,180
2013-9-6,89,77,65,61,52,46,63,46,23,30.18,29.93,29.85,10,10,10,23,5,33,0.02,4,Rain-Thunderstorm,204
2013-9-7,81,71,61,59,57,53,84,65,42,29.97,29.93,29.88,10,10,10,16,4,20,T,4,,245
2013-9-8,70,66,61,61,59,57,93,83,70,30.13,29.89,29.81,10,10,7,16,4,21,0.34,6,Rain,174
2013-9-9,67,63,58,61,58,55,97,87,68,30.05,29.84,29.76,10,9,3,17,3,24,0.18,6,Rain,173
2013-9-10,68,62,56,59,57,53,100,91,63,30.09,29.94,29.81,10,6,0,15,5,18,1.75,7,Fog-Rain,116
2013-9-11,72,63,54,59,56,52,93,81,58,30.14,29.97,29.91,10,10,8,22,5,28,0.05,5,Rain,169
2013-9-12,80,66,52,57,50,42,93,64,28,30.00,29.92,29.85,10,10,9,9,4,13,0.01,0,,243
2013-9-13,83,68,53,53,51,47,83,57,30,29.86,29.79,29.71,10,10,10,12,3,17,0.00,1,,201
2013-9-14,83,69,55,55,51,47,83,60,28,29.94,29.77,29.70,10,10,8,18,6,24,0.01,2,Rain-Thunderstorm,221
2013-9-15,84,69,53,55,51,45,89,56,25,29.88,29.84,29.78,10,10,10,29,4,30,0.00,1,,182
2013-9-16,86,71,55,55,50,44,77,52,25,29.92,29.86,29.81,10,10,10,14,5,18,0.00,1,,185
2013-9-17,85,73,60,56,52,46,78,50,27,29.83,29.76,29.69,10,10,10,18,8,25,0.00,2,,182
2013-9-18,83,70,57,47,38,25,62,36,13,29.76,29.73,29.69,10,10,10,26,9,36,0.00,1,,195
2013-9-19,84,67,50,42,33,23,59,34,11,29.84,29.80,29.76,10,10,10,16,7,23,0.00,0,,170
2013-9-20,84,66,48,47,39,32,52,37,21,29.88,29.83,29.81,10,10,10,22,7,33,0.00,1,,205
2013-9-21,82,70,58,50,47,45,67,46,31,29.86,29.77,29.64,10,10,10,20,9,26,0.00,1,,179
2013-9-22,71,59,47,48,32,20,52,33,15,29.83,29.65,29.57,10,10,10,31,13,41,0.00,0,,225
2013-9-23,79,61,43,35,31,24,70,38,13,29.96,29.90,29.82,10,10,10,9,4,13,0.00,0,,220
2013-9-24,81,63,45,37,32,22,61,35,11,30.00,29.91,29.78,10,10,10,16,6,22,0.00,0,,197
2013-9-25,76,63,49,41,35,29,52,34,19,29.79,29.70,29.60,10,10,10,23,11,33,0.00,0,,187
2013-9-26,72,63,54,41,34,23,55,35,22,29.71,29.62,29.57,10,10,10,33,13,49,T,2,,210
2013-9-27,67,55,43,28,21,14,49,28,13,30.01,29.88,29.72,10,10,10,15,7,23,0.00,2,,325
2013-9-28,74,55,35,30,21,13,59,32,9,30.13,30.07,30.02,10,10,10,10,5,13,0.00,0,,206
2013-9-29,79,61,42,35,27,23,53,31,15,30.13,30.05,29.98,10,10,10,14,6,20,0.00,0,,202
2013-9-30,81,62,42,29,26,20,57,30,10,30.02,29.94,29.88,10,10,10,13,5,17,0.00,0,,214